sensor_id;sensor_type;location;lat;lon;timestamp;temperature;humidity
10300;DHT22;5195;48.562;9.192;2023-04-25T00:01:30;12.60;47.50
10300;DHT22;5195;48.562;9.192;2023-04-25T00:04:05;12.30;47.90
10300;DHT22;5195;48.562;9.192;2023-04-25T00:06:41;12.50;48.00
10300;DHT22;5195;48.562;9.192;2023-04-25T00:09:16;12.80;47.30
10300;DHT22;5195;48.562;9.192;2023-04-25T00:11:53;12.60;47.20
10300;DHT22;5195;48.562;9.192;2023-04-25T00:14:29;12.30;47.60
10300;DHT22;5195;48.562;9.192;2023-04-25T00:17:04;12.00;48.00
10300;DHT22;5195;48.562;9.192;2023-04-25T00:19:40;11.80;48.40
10300;DHT22;5195;48.562;9.192;2023-04-25T00:22:16;12.10;48.90
10300;DHT22;5195;48.562;9.192;2023-04-25T00:24:51;12.50;48.50
10300;DHT22;5195;48.562;9.192;2023-04-25T00:27:27;12.80;48.20
10300;DHT22;5195;48.562;9.192;2023-04-25T00:30:02;13.00;47.90
10300;DHT22;5195;48.562;9.192;2023-04-25T00:32:38;13.20;48.20
10300;DHT22;5195;48.562;9.192;2023-04-25T00:35:13;13.30;47.80
10300;DHT22;5195;48.562;9.192;2023-04-25T00:37:49;13.40;47.40
10300;DHT22;5195;48.562;9.192;2023-04-25T00:40:24;13.40;46.60
10300;DHT22;5195;48.562;9.192;2023-04-25T00:43:00;13.10;46.80
10300;DHT22;5195;48.562;9.192;2023-04-25T00:45:36;12.70;47.40
10300;DHT22;5195;48.562;9.192;2023-04-25T00:48:13;12.50;48.00
10300;DHT22;5195;48.562;9.192;2023-04-25T00:50:51;12.50;48.00
10300;DHT22;5195;48.562;9.192;2023-04-25T00:53:27;12.40;47.80
10300;DHT22;5195;48.562;9.192;2023-04-25T00:56:02;12.20;48.10
10300;DHT22;5195;48.562;9.192;2023-04-25T00:58:38;12.40;48.10
10300;DHT22;5195;48.562;9.192;2023-04-25T01:01:13;12.30;47.80
10300;DHT22;5195;48.562;9.192;2023-04-25T01:03:49;12.10;48.10
10300;DHT22;5195;48.562;9.192;2023-04-25T01:06:24;11.90;48.40
10300;DHT22;5195;48.562;9.192;2023-04-25T01:09:01;12.00;48.90
10300;DHT22;5195;48.562;9.192;2023-04-25T01:11:36;12.00;48.90
10300;DHT22;5195;48.562;9.192;2023-04-25T01:14:12;12.10;48.50
10300;DHT22;5195;48.562;9.192;2023-04-25T01:16:47;12.00;48.70
10300;DHT22;5195;48.562;9.192;2023-04-25T01:19:23;11.80;48.90
10300;DHT22;5195;48.562;9.192;2023-04-25T01:21:58;11.70;49.00
10300;DHT22;5195;48.562;9.192;2023-04-25T01:24:34;11.50;49.00
10300;DHT22;5195;48.562;9.192;2023-04-25T01:27:10;11.40;49.00
10300;DHT22;5195;48.562;9.192;2023-04-25T01:29:45;11.80;49.10
10300;DHT22;5195;48.562;9.192;2023-04-25T01:32:22;12.20;48.30
10300;DHT22;5195;48.562;9.192;2023-04-25T01:34:58;12.60;47.60
10300;DHT22;5195;48.562;9.192;2023-04-25T01:37:33;12.50;47.50
10300;DHT22;5195;48.562;9.192;2023-04-25T01:40:09;12.60;47.40
10300;DHT22;5195;48.562;9.192;2023-04-25T01:42:45;12.50;47.30
10300;DHT22;5195;48.562;9.192;2023-04-25T01:45:20;12.20;47.60
10300;DHT22;5195;48.562;9.192;2023-04-25T01:47:56;11.90;47.90
10300;DHT22;5195;48.562;9.192;2023-04-25T01:50:31;11.80;48.20
10300;DHT22;5195;48.562;9.192;2023-04-25T01:53:08;11.70;48.50
10300;DHT22;5195;48.562;9.192;2023-04-25T01:55:43;11.90;49.00
10300;DHT22;5195;48.562;9.192;2023-04-25T01:58:19;12.00;48.70
10300;DHT22;5195;48.562;9.192;2023-04-25T02:00:55;12.20;49.00
10300;DHT22;5195;48.562;9.192;2023-04-25T02:03:31;12.00;49.40
10300;DHT22;5195;48.562;9.192;2023-04-25T02:06:06;12.00;48.70
10300;DHT22;5195;48.562;9.192;2023-04-25T02:08:42;12.20;48.70
10300;DHT22;5195;48.562;9.192;2023-04-25T02:11:18;12.20;48.50
10300;DHT22;5195;48.562;9.192;2023-04-25T02:13:54;12.10;49.00
10300;DHT22;5195;48.562;9.192;2023-04-25T02:16:29;12.10;49.00
10300;DHT22;5195;48.562;9.192;2023-04-25T02:19:05;12.10;48.80
10300;DHT22;5195;48.562;9.192;2023-04-25T02:21:41;11.90;48.80
10300;DHT22;5195;48.562;9.192;2023-04-25T02:24:16;11.70;48.90
10300;DHT22;5195;48.562;9.192;2023-04-25T02:26:52;11.80;49.40
10300;DHT22;5195;48.562;9.192;2023-04-25T02:29:29;11.80;49.30
10300;DHT22;5195;48.562;9.192;2023-04-25T02:32:06;11.70;49.90
10300;DHT22;5195;48.562;9.192;2023-04-25T02:34:41;11.70;49.10
10300;DHT22;5195;48.562;9.192;2023-04-25T02:37:17;11.90;48.70
10300;DHT22;5195;48.562;9.192;2023-04-25T02:39:52;11.80;48.40
10300;DHT22;5195;48.562;9.192;2023-04-25T02:42:29;11.80;49.80
10300;DHT22;5195;48.562;9.192;2023-04-25T02:45:04;11.80;49.80
10300;DHT22;5195;48.562;9.192;2023-04-25T02:47:40;11.80;49.60
10300;DHT22;5195;48.562;9.192;2023-04-25T02:50:16;11.60;49.80
10300;DHT22;5195;48.562;9.192;2023-04-25T02:52:52;11.60;51.30
10300;DHT22;5195;48.562;9.192;2023-04-25T02:55:28;11.50;51.20
10300;DHT22;5195;48.562;9.192;2023-04-25T02:58:04;11.60;50.90
10300;DHT22;5195;48.562;9.192;2023-04-25T03:00:39;11.50;50.90
10300;DHT22;5195;48.562;9.192;2023-04-25T03:03:15;11.50;50.90
10300;DHT22;5195;48.562;9.192;2023-04-25T03:05:51;11.80;50.10
10300;DHT22;5195;48.562;9.192;2023-04-25T03:08:26;12.10;49.50
10300;DHT22;5195;48.562;9.192;2023-04-25T03:11:03;12.30;49.00
10300;DHT22;5195;48.562;9.192;2023-04-25T03:13:39;12.40;48.70
10300;DHT22;5195;48.562;9.192;2023-04-25T03:16:14;12.10;48.70
10300;DHT22;5195;48.562;9.192;2023-04-25T03:18:50;11.80;49.30
10300;DHT22;5195;48.562;9.192;2023-04-25T03:21:25;11.50;49.80
10300;DHT22;5195;48.562;9.192;2023-04-25T03:24:02;11.40;49.80
10300;DHT22;5195;48.562;9.192;2023-04-25T03:26:37;11.40;49.80
10300;DHT22;5195;48.562;9.192;2023-04-25T03:29:13;11.40;49.50
10300;DHT22;5195;48.562;9.192;2023-04-25T03:31:48;11.50;49.20
10300;DHT22;5195;48.562;9.192;2023-04-25T03:34:25;11.50;49.20
10300;DHT22;5195;48.562;9.192;2023-04-25T03:37:01;11.60;49.40
10300;DHT22;5195;48.562;9.192;2023-04-25T03:39:36;11.60;49.20
10300;DHT22;5195;48.562;9.192;2023-04-25T03:42:12;11.40;49.60
10300;DHT22;5195;48.562;9.192;2023-04-25T03:44:48;11.50;50.10
10300;DHT22;5195;48.562;9.192;2023-04-25T03:47:23;11.80;49.60
10300;DHT22;5195;48.562;9.192;2023-04-25T03:49:59;11.70;49.50
10300;DHT22;5195;48.562;9.192;2023-04-25T03:52:34;11.80;49.90
10300;DHT22;5195;48.562;9.192;2023-04-25T03:55:10;11.70;49.70
10300;DHT22;5195;48.562;9.192;2023-04-25T03:57:46;11.40;50.00
10300;DHT22;5195;48.562;9.192;2023-04-25T04:00:21;11.50;50.00
10300;DHT22;5195;48.562;9.192;2023-04-25T04:02:58;11.50;49.80
10300;DHT22;5195;48.562;9.192;2023-04-25T04:05:33;11.20;49.90
10300;DHT22;5195;48.562;9.192;2023-04-25T04:08:10;11.10;50.60
10300;DHT22;5195;48.562;9.192;2023-04-25T04:10:45;11.10;49.90
10300;DHT22;5195;48.562;9.192;2023-04-25T04:13:21;11.50;49.00
10300;DHT22;5195;48.562;9.192;2023-04-25T04:15:57;11.40;48.80
10300;DHT22;5195;48.562;9.192;2023-04-25T04:18:32;11.40;48.20
10300;DHT22;5195;48.562;9.192;2023-04-25T04:21:08;11.70;47.90
10300;DHT22;5195;48.562;9.192;2023-04-25T04:23:43;11.50;48.00
10300;DHT22;5195;48.562;9.192;2023-04-25T04:26:19;11.10;48.50
10300;DHT22;5195;48.562;9.192;2023-04-25T04:28:54;11.20;48.50
10300;DHT22;5195;48.562;9.192;2023-04-25T04:31:30;11.10;48.50
10300;DHT22;5195;48.562;9.192;2023-04-25T04:34:06;10.80;48.90
10300;DHT22;5195;48.562;9.192;2023-04-25T04:36:41;10.60;49.40
10300;DHT22;5195;48.562;9.192;2023-04-25T04:39:17;10.80;49.20
10300;DHT22;5195;48.562;9.192;2023-04-25T04:41:52;11.20;48.30
10300;DHT22;5195;48.562;9.192;2023-04-25T04:44:28;11.20;48.30
10300;DHT22;5195;48.562;9.192;2023-04-25T04:47:04;11.00;48.60
10300;DHT22;5195;48.562;9.192;2023-04-25T04:49:39;11.20;48.40
10300;DHT22;5195;48.562;9.192;2023-04-25T04:52:15;11.90;47.00
10300;DHT22;5195;48.562;9.192;2023-04-25T04:54:51;11.80;47.10
10300;DHT22;5195;48.562;9.192;2023-04-25T04:57:27;11.70;47.10
10300;DHT22;5195;48.562;9.192;2023-04-25T05:00:05;11.90;46.70
10300;DHT22;5195;48.562;9.192;2023-04-25T05:02:40;11.90;46.70
10300;DHT22;5195;48.562;9.192;2023-04-25T05:05:16;11.70;46.90
10300;DHT22;5195;48.562;9.192;2023-04-25T05:07:51;11.40;47.50
10300;DHT22;5195;48.562;9.192;2023-04-25T05:10:27;11.50;47.80
10300;DHT22;5195;48.562;9.192;2023-04-25T05:13:03;11.70;47.60
10300;DHT22;5195;48.562;9.192;2023-04-25T05:15:40;11.70;47.60
10300;DHT22;5195;48.562;9.192;2023-04-25T05:18:16;12.30;46.70
10300;DHT22;5195;48.562;9.192;2023-04-25T05:20:52;12.30;46.70
10300;DHT22;5195;48.562;9.192;2023-04-25T05:23:28;12.10;46.80
10300;DHT22;5195;48.562;9.192;2023-04-25T05:26:03;11.80;47.40
10300;DHT22;5195;48.562;9.192;2023-04-25T05:28:42;11.50;48.00
10300;DHT22;5195;48.562;9.192;2023-04-25T05:31:18;11.60;50.40
10300;DHT22;5195;48.562;9.192;2023-04-25T05:33:54;11.60;50.40
10300;DHT22;5195;48.562;9.192;2023-04-25T05:36:29;12.00;50.50
10300;DHT22;5195;48.562;9.192;2023-04-25T05:39:05;12.30;50.10
10300;DHT22;5195;48.562;9.192;2023-04-25T05:41:40;12.60;49.60
10300;DHT22;5195;48.562;9.192;2023-04-25T05:44:16;12.40;49.40
10300;DHT22;5195;48.562;9.192;2023-04-25T05:46:53;12.40;49.00
10300;DHT22;5195;48.562;9.192;2023-04-25T05:49:29;12.30;49.10
10300;DHT22;5195;48.562;9.192;2023-04-25T05:52:05;12.50;49.50
10300;DHT22;5195;48.562;9.192;2023-04-25T05:54:41;12.80;48.30
10300;DHT22;5195;48.562;9.192;2023-04-25T05:57:20;12.70;48.30
10300;DHT22;5195;48.562;9.192;2023-04-25T05:59:55;12.80;48.30
10300;DHT22;5195;48.562;9.192;2023-04-25T06:02:31;13.10;47.70
10300;DHT22;5195;48.562;9.192;2023-04-25T06:05:06;13.00;47.80
10300;DHT22;5195;48.562;9.192;2023-04-25T06:07:42;12.80;48.30
10300;DHT22;5195;48.562;9.192;2023-04-25T06:10:17;12.90;48.80
10300;DHT22;5195;48.562;9.192;2023-04-25T06:12:54;13.20;48.80
10300;DHT22;5195;48.562;9.192;2023-04-25T06:15:31;13.00;48.90
10300;DHT22;5195;48.562;9.192;2023-04-25T06:18:06;12.90;48.80
10300;DHT22;5195;48.562;9.192;2023-04-25T06:20:42;13.10;48.70
10300;DHT22;5195;48.562;9.192;2023-04-25T06:23:17;13.10;48.60
10300;DHT22;5195;48.562;9.192;2023-04-25T06:25:53;13.00;48.90
10300;DHT22;5195;48.562;9.192;2023-04-25T06:28:29;12.80;49.00
10300;DHT22;5195;48.562;9.192;2023-04-25T06:31:04;12.70;49.10
10300;DHT22;5195;48.562;9.192;2023-04-25T06:33:40;13.00;48.70
10300;DHT22;5195;48.562;9.192;2023-04-25T06:36:15;13.40;48.60
10300;DHT22;5195;48.562;9.192;2023-04-25T06:38:51;13.70;47.30
10300;DHT22;5195;48.562;9.192;2023-04-25T06:41:26;13.60;47.30
10300;DHT22;5195;48.562;9.192;2023-04-25T06:44:02;13.30;47.80
10300;DHT22;5195;48.562;9.192;2023-04-25T06:46:37;13.40;47.90
10300;DHT22;5195;48.562;9.192;2023-04-25T06:49:13;13.30;47.80
10300;DHT22;5195;48.562;9.192;2023-04-25T06:51:50;13.40;48.00
10300;DHT22;5195;48.562;9.192;2023-04-25T06:54:26;13.60;47.00
10300;DHT22;5195;48.562;9.192;2023-04-25T06:57:01;13.40;47.00
10300;DHT22;5195;48.562;9.192;2023-04-25T06:59:38;13.60;47.20
10300;DHT22;5195;48.562;9.192;2023-04-25T07:02:13;13.60;47.20
10300;DHT22;5195;48.562;9.192;2023-04-25T07:04:49;13.40;47.20
10300;DHT22;5195;48.562;9.192;2023-04-25T07:07:25;13.10;48.30
10300;DHT22;5195;48.562;9.192;2023-04-25T07:10:01;13.00;47.90
10300;DHT22;5195;48.562;9.192;2023-04-25T07:12:36;12.90;47.90
10300;DHT22;5195;48.562;9.192;2023-04-25T07:15:12;13.00;48.50
10300;DHT22;5195;48.562;9.192;2023-04-25T07:17:47;13.30;48.20
10300;DHT22;5195;48.562;9.192;2023-04-25T07:20:23;13.40;48.00
10300;DHT22;5195;48.562;9.192;2023-04-25T07:22:59;13.50;48.00
10300;DHT22;5195;48.562;9.192;2023-04-25T07:25:34;13.60;48.20
10300;DHT22;5195;48.562;9.192;2023-04-25T07:28:10;13.60;48.20
10300;DHT22;5195;48.562;9.192;2023-04-25T07:30:45;13.20;48.10
10300;DHT22;5195;48.562;9.192;2023-04-25T07:33:22;12.80;50.10
10300;DHT22;5195;48.562;9.192;2023-04-25T07:35:57;12.70;50.00
10300;DHT22;5195;48.562;9.192;2023-04-25T07:38:33;12.60;49.90
10300;DHT22;5195;48.562;9.192;2023-04-25T07:41:08;12.60;50.40
10300;DHT22;5195;48.562;9.192;2023-04-25T07:43:45;12.90;50.40
10300;DHT22;5195;48.562;9.192;2023-04-25T07:46:21;12.70;49.80
10300;DHT22;5195;48.562;9.192;2023-04-25T07:48:56;12.70;50.00
10300;DHT22;5195;48.562;9.192;2023-04-25T07:51:32;12.90;50.00
10300;DHT22;5195;48.562;9.192;2023-04-25T07:54:09;12.70;49.80
10300;DHT22;5195;48.562;9.192;2023-04-25T07:56:44;12.70;49.80
10300;DHT22;5195;48.562;9.192;2023-04-25T07:59:19;12.80;49.60
10300;DHT22;5195;48.562;9.192;2023-04-25T08:01:56;12.50;51.00
10300;DHT22;5195;48.562;9.192;2023-04-25T08:04:31;12.50;50.20
10300;DHT22;5195;48.562;9.192;2023-04-25T08:07:07;12.20;50.20
10300;DHT22;5195;48.562;9.192;2023-04-25T08:09:42;12.20;51.20
10300;DHT22;5195;48.562;9.192;2023-04-25T08:12:18;12.50;50.80
10300;DHT22;5195;48.562;9.192;2023-04-25T08:14:53;12.60;49.50
10300;DHT22;5195;48.562;9.192;2023-04-25T08:17:30;12.00;50.30
10300;DHT22;5195;48.562;9.192;2023-04-25T08:20:06;12.00;50.30
10300;DHT22;5195;48.562;9.192;2023-04-25T08:22:41;11.70;50.20
10300;DHT22;5195;48.562;9.192;2023-04-25T08:25:17;11.20;51.10
10300;DHT22;5195;48.562;9.192;2023-04-25T08:27:52;11.20;51.10
10300;DHT22;5195;48.562;9.192;2023-04-25T08:30:28;11.40;51.20
10300;DHT22;5195;48.562;9.192;2023-04-25T08:33:04;10.80;51.90
10300;DHT22;5195;48.562;9.192;2023-04-25T08:35:40;10.70;51.80
10300;DHT22;5195;48.562;9.192;2023-04-25T08:38:16;10.50;52.30
10300;DHT22;5195;48.562;9.192;2023-04-25T08:40:51;10.70;52.90
10300;DHT22;5195;48.562;9.192;2023-04-25T08:43:27;11.00;52.60
10300;DHT22;5195;48.562;9.192;2023-04-25T08:46:02;10.90;52.40
10300;DHT22;5195;48.562;9.192;2023-04-25T08:48:39;10.90;53.40
10300;DHT22;5195;48.562;9.192;2023-04-25T08:51:25;10.80;53.30
10300;DHT22;5195;48.562;9.192;2023-04-25T08:54:09;10.80;53.10
10300;DHT22;5195;48.562;9.192;2023-04-25T08:56:44;11.00;53.40
10300;DHT22;5195;48.562;9.192;2023-04-25T08:59:19;10.90;53.20
10300;DHT22;5195;48.562;9.192;2023-04-25T09:01:55;11.10;53.70
10300;DHT22;5195;48.562;9.192;2023-04-25T09:04:32;11.00;53.70
10300;DHT22;5195;48.562;9.192;2023-04-25T09:07:07;11.20;54.10
10300;DHT22;5195;48.562;9.192;2023-04-25T09:09:43;11.60;54.70
10300;DHT22;5195;48.562;9.192;2023-04-25T09:12:19;11.90;54.10
10300;DHT22;5195;48.562;9.192;2023-04-25T09:15:08;11.80;54.00
10300;DHT22;5195;48.562;9.192;2023-04-25T09:17:43;11.60;54.40
10300;DHT22;5195;48.562;9.192;2023-04-25T09:20:19;11.80;53.80
10300;DHT22;5195;48.562;9.192;2023-04-25T09:23:03;11.80;53.80
10300;DHT22;5195;48.562;9.192;2023-04-25T09:25:40;11.90;53.90
10300;DHT22;5195;48.562;9.192;2023-04-25T09:28:16;11.90;53.90
10300;DHT22;5195;48.562;9.192;2023-04-25T09:30:55;11.80;54.30
10300;DHT22;5195;48.562;9.192;2023-04-25T09:33:32;12.00;54.10
10300;DHT22;5195;48.562;9.192;2023-04-25T09:36:11;12.40;53.20
10300;DHT22;5195;48.562;9.192;2023-04-25T09:38:43;12.80;52.30
10300;DHT22;5195;48.562;9.192;2023-04-25T09:41:23;13.10;51.60
10300;DHT22;5195;48.562;9.192;2023-04-25T09:43:58;13.30;51.10
10300;DHT22;5195;48.562;9.192;2023-04-25T09:46:34;13.10;51.50
10300;DHT22;5195;48.562;9.192;2023-04-25T09:49:09;13.20;51.60
10300;DHT22;5195;48.562;9.192;2023-04-25T09:51:58;13.10;51.80
10300;DHT22;5195;48.562;9.192;2023-04-25T09:54:34;13.00;52.10
10300;DHT22;5195;48.562;9.192;2023-04-25T09:57:17;13.00;51.50
10300;DHT22;5195;48.562;9.192;2023-04-25T09:59:53;13.10;50.90
10300;DHT22;5195;48.562;9.192;2023-04-25T10:02:28;12.90;51.20
10300;DHT22;5195;48.562;9.192;2023-04-25T10:05:05;12.70;51.90
10300;DHT22;5195;48.562;9.192;2023-04-25T10:07:40;12.80;51.80
10300;DHT22;5195;48.562;9.192;2023-04-25T10:10:15;12.80;51.80
10300;DHT22;5195;48.562;9.192;2023-04-25T10:12:51;12.80;51.70
10300;DHT22;5195;48.562;9.192;2023-04-25T10:15:27;12.70;52.00
10300;DHT22;5195;48.562;9.192;2023-04-25T10:18:02;12.80;51.00
10300;DHT22;5195;48.562;9.192;2023-04-25T10:20:38;13.00;50.50
10300;DHT22;5195;48.562;9.192;2023-04-25T10:23:13;13.30;50.20
10300;DHT22;5195;48.562;9.192;2023-04-25T10:25:50;13.10;50.60
10300;DHT22;5195;48.562;9.192;2023-04-25T10:28:24;13.10;50.20
10300;DHT22;5195;48.562;9.192;2023-04-25T10:31:03;12.90;50.90
10300;DHT22;5195;48.562;9.192;2023-04-25T10:33:39;13.00;51.00
10300;DHT22;5195;48.562;9.192;2023-04-25T10:36:15;12.90;51.30
10300;DHT22;5195;48.562;9.192;2023-04-25T10:38:51;12.80;51.90
10300;DHT22;5195;48.562;9.192;2023-04-25T10:41:26;12.70;51.80
10300;DHT22;5195;48.562;9.192;2023-04-25T10:44:02;12.70;52.50
10300;DHT22;5195;48.562;9.192;2023-04-25T10:46:39;13.10;50.80
10300;DHT22;5195;48.562;9.192;2023-04-25T10:54:57;12.70;51.70
10300;DHT22;5195;48.562;9.192;2023-04-25T10:57:45;12.40;52.30
10300;DHT22;5195;48.562;9.192;2023-04-25T11:00:24;12.60;52.00
10300;DHT22;5195;48.562;9.192;2023-04-25T11:03:00;12.50;51.90
10300;DHT22;5195;48.562;9.192;2023-04-25T11:05:36;12.40;52.50
10300;DHT22;5195;48.562;9.192;2023-04-25T11:08:11;12.60;51.90
10300;DHT22;5195;48.562;9.192;2023-04-25T11:10:47;12.80;51.80
10300;DHT22;5195;48.562;9.192;2023-04-25T11:13:28;12.80;51.70
10300;DHT22;5195;48.562;9.192;2023-04-25T11:16:07;12.80;52.10
10300;DHT22;5195;48.562;9.192;2023-04-25T11:18:34;12.70;52.70
10300;DHT22;5195;48.562;9.192;2023-04-25T11:21:11;12.60;53.10
10300;DHT22;5195;48.562;9.192;2023-04-25T11:23:45;12.80;52.00
10300;DHT22;5195;48.562;9.192;2023-04-25T11:26:21;12.90;52.20
10300;DHT22;5195;48.562;9.192;2023-04-25T11:28:57;12.70;52.50
10300;DHT22;5195;48.562;9.192;2023-04-25T11:31:32;12.60;52.90
10300;DHT22;5195;48.562;9.192;2023-04-25T11:34:08;12.50;53.00
10300;DHT22;5195;48.562;9.192;2023-04-25T11:36:43;12.40;53.50
10300;DHT22;5195;48.562;9.192;2023-04-25T11:39:19;12.30;53.50
10300;DHT22;5195;48.562;9.192;2023-04-25T11:41:57;12.50;50.20
10300;DHT22;5195;48.562;9.192;2023-04-25T11:44:32;12.40;50.70
10300;DHT22;5195;48.562;9.192;2023-04-25T11:47:08;12.60;50.90
10300;DHT22;5195;48.562;9.192;2023-04-25T11:49:44;12.70;51.50
10300;DHT22;5195;48.562;9.192;2023-04-25T11:52:19;12.70;52.40
10300;DHT22;5195;48.562;9.192;2023-04-25T11:54:56;13.00;51.60
10300;DHT22;5195;48.562;9.192;2023-04-25T11:57:31;13.40;51.10
10300;DHT22;5195;48.562;9.192;2023-04-25T12:00:11;13.70;50.40
10300;DHT22;5195;48.562;9.192;2023-04-25T12:02:46;13.70;50.40
10300;DHT22;5195;48.562;9.192;2023-04-25T12:05:29;13.80;51.00
10300;DHT22;5195;48.562;9.192;2023-04-25T12:08:09;13.90;50.30
10300;DHT22;5195;48.562;9.192;2023-04-25T12:21:37;14.60;49.00
10300;DHT22;5195;48.562;9.192;2023-04-25T12:24:23;14.40;49.30
10300;DHT22;5195;48.562;9.192;2023-04-25T12:29:24;14.00;50.10
10300;DHT22;5195;48.562;9.192;2023-04-25T12:31:49;14.00;50.10
10300;DHT22;5195;48.562;9.192;2023-04-25T12:34:15;13.80;50.40
10300;DHT22;5195;48.562;9.192;2023-04-25T12:36:40;13.80;50.10
10300;DHT22;5195;48.562;9.192;2023-04-25T12:39:06;14.00;49.80
10300;DHT22;5195;48.562;9.192;2023-04-25T12:41:31;13.90;50.40
10300;DHT22;5195;48.562;9.192;2023-04-25T12:43:57;13.90;50.00
10300;DHT22;5195;48.562;9.192;2023-04-25T12:46:22;14.10;50.30
10300;DHT22;5195;48.562;9.192;2023-04-25T12:48:48;14.00;50.70
10300;DHT22;5195;48.562;9.192;2023-04-25T12:51:14;14.10;50.60
10300;DHT22;5195;48.562;9.192;2023-04-25T12:53:40;14.30;50.20
10300;DHT22;5195;48.562;9.192;2023-04-25T12:56:09;14.50;50.10
10300;DHT22;5195;48.562;9.192;2023-04-25T12:58:31;14.50;50.10
10300;DHT22;5195;48.562;9.192;2023-04-25T13:00:58;14.30;50.80
10300;DHT22;5195;48.562;9.192;2023-04-25T13:03:24;14.40;50.20
10300;DHT22;5195;48.562;9.192;2023-04-25T13:05:49;14.30;50.80
10300;DHT22;5195;48.562;9.192;2023-04-25T13:08:15;14.50;50.20
10300;DHT22;5195;48.562;9.192;2023-04-25T13:10:40;14.70;49.70
10300;DHT22;5195;48.562;9.192;2023-04-25T13:13:06;14.90;49.30
10300;DHT22;5195;48.562;9.192;2023-04-25T13:15:32;14.80;49.70
10300;DHT22;5195;48.562;9.192;2023-04-25T13:17:57;14.70;49.20
10300;DHT22;5195;48.562;9.192;2023-04-25T13:20:23;14.80;49.00
10300;DHT22;5195;48.562;9.192;2023-04-25T13:22:48;14.90;48.80
10300;DHT22;5195;48.562;9.192;2023-04-25T13:25:15;14.20;50.20
10300;DHT22;5195;48.562;9.192;2023-04-25T13:27:40;14.30;50.30
10300;DHT22;5195;48.562;9.192;2023-04-25T13:30:06;14.30;50.20
10300;DHT22;5195;48.562;9.192;2023-04-25T13:32:35;14.20;50.80
10300;DHT22;5195;48.562;9.192;2023-04-25T13:35:00;14.00;51.50
10300;DHT22;5195;48.562;9.192;2023-04-25T13:37:25;13.80;51.90
10300;DHT22;5195;48.562;9.192;2023-04-25T13:39:51;14.00;50.50
10300;DHT22;5195;48.562;9.192;2023-04-25T13:42:17;14.10;50.80
10300;DHT22;5195;48.562;9.192;2023-04-25T13:44:42;14.20;49.00
10300;DHT22;5195;48.562;9.192;2023-04-25T13:47:10;14.50;49.40
10300;DHT22;5195;48.562;9.192;2023-04-25T13:49:35;14.40;49.30
10300;DHT22;5195;48.562;9.192;2023-04-25T13:52:01;14.60;49.90
10300;DHT22;5195;48.562;9.192;2023-04-25T13:54:27;14.50;50.50
10300;DHT22;5195;48.562;9.192;2023-04-25T13:56:53;14.70;50.00
10300;DHT22;5195;48.562;9.192;2023-04-25T13:59:18;14.70;50.00
10300;DHT22;5195;48.562;9.192;2023-04-25T14:01:44;14.90;49.70
10300;DHT22;5195;48.562;9.192;2023-04-25T14:04:10;15.20;48.30
10300;DHT22;5195;48.562;9.192;2023-04-25T14:06:35;15.40;47.80
10300;DHT22;5195;48.562;9.192;2023-04-25T14:09:01;15.60;47.50
10300;DHT22;5195;48.562;9.192;2023-04-25T14:11:26;15.50;48.40
10300;DHT22;5195;48.562;9.192;2023-04-25T14:13:52;15.20;49.20
10300;DHT22;5195;48.562;9.192;2023-04-25T14:16:17;15.30;47.80
10300;DHT22;5195;48.562;9.192;2023-04-25T14:18:44;15.40;47.90
10300;DHT22;5195;48.562;9.192;2023-04-25T14:21:09;15.40;47.90
10300;DHT22;5195;48.562;9.192;2023-04-25T14:23:35;15.10;48.60
10300;DHT22;5195;48.562;9.192;2023-04-25T14:26:00;14.90;49.20
10300;DHT22;5195;48.562;9.192;2023-04-25T14:28:26;15.00;47.70
10300;DHT22;5195;48.562;9.192;2023-04-25T14:30:52;15.00;48.20
10300;DHT22;5195;48.562;9.192;2023-04-25T14:33:18;15.50;46.60
10300;DHT22;5195;48.562;9.192;2023-04-25T14:35:43;15.40;46.50
10300;DHT22;5195;48.562;9.192;2023-04-25T14:38:10;15.90;46.20
10300;DHT22;5195;48.562;9.192;2023-04-25T14:40:35;15.90;46.20
10300;DHT22;5195;48.562;9.192;2023-04-25T14:43:01;16.10;45.60
10300;DHT22;5195;48.562;9.192;2023-04-25T14:45:27;15.90;46.60
10300;DHT22;5195;48.562;9.192;2023-04-25T14:47:52;15.50;47.50
10300;DHT22;5195;48.562;9.192;2023-04-25T14:50:18;15.40;48.40
10300;DHT22;5195;48.562;9.192;2023-04-25T14:52:44;15.40;47.80
10300;DHT22;5195;48.562;9.192;2023-04-25T14:55:10;15.20;48.40
10300;DHT22;5195;48.562;9.192;2023-04-25T14:57:37;15.30;48.00
10300;DHT22;5195;48.562;9.192;2023-04-25T15:00:03;15.20;47.90
10300;DHT22;5195;48.562;9.192;2023-04-25T15:02:29;15.10;48.60
10300;DHT22;5195;48.562;9.192;2023-04-25T15:04:54;15.20;47.40
10300;DHT22;5195;48.562;9.192;2023-04-25T15:07:20;15.20;47.60
10300;DHT22;5195;48.562;9.192;2023-04-25T15:09:46;15.30;46.50
10300;DHT22;5195;48.562;9.192;2023-04-25T15:12:11;15.50;46.20
10300;DHT22;5195;48.562;9.192;2023-04-25T15:14:37;15.70;44.90
10300;DHT22;5195;48.562;9.192;2023-04-25T15:17:04;15.60;46.00
10300;DHT22;5195;48.562;9.192;2023-04-25T15:19:29;15.60;46.20
10300;DHT22;5195;48.562;9.192;2023-04-25T15:21:55;15.50;46.80
10300;DHT22;5195;48.562;9.192;2023-04-25T15:24:21;14.90;48.40
10300;DHT22;5195;48.562;9.192;2023-04-25T15:26:47;14.80;47.60
10300;DHT22;5195;48.562;9.192;2023-04-25T15:29:12;14.60;48.30
10300;DHT22;5195;48.562;9.192;2023-04-25T15:31:38;14.50;48.70
10300;DHT22;5195;48.562;9.192;2023-04-25T15:34:03;14.30;49.00
10300;DHT22;5195;48.562;9.192;2023-04-25T15:36:30;14.20;49.50
10300;DHT22;5195;48.562;9.192;2023-04-25T15:38:55;14.40;47.90
10300;DHT22;5195;48.562;9.192;2023-04-25T15:41:21;14.50;48.50
10300;DHT22;5195;48.562;9.192;2023-04-25T15:43:46;14.50;49.20
10300;DHT22;5195;48.562;9.192;2023-04-25T15:46:12;14.40;49.60
10300;DHT22;5195;48.562;9.192;2023-04-25T15:48:38;14.60;47.70
10300;DHT22;5195;48.562;9.192;2023-04-25T15:51:03;15.00;47.00
10300;DHT22;5195;48.562;9.192;2023-04-25T15:53:29;15.00;47.50
10300;DHT22;5195;48.562;9.192;2023-04-25T15:55:54;14.80;48.60
10300;DHT22;5195;48.562;9.192;2023-04-25T15:58:20;14.90;47.50
10300;DHT22;5195;48.562;9.192;2023-04-25T16:00:47;15.30;46.90
10300;DHT22;5195;48.562;9.192;2023-04-25T16:03:12;15.20;47.40
10300;DHT22;5195;48.562;9.192;2023-04-25T16:05:39;15.00;48.00
10300;DHT22;5195;48.562;9.192;2023-04-25T16:08:05;14.80;48.60
10300;DHT22;5195;48.562;9.192;2023-04-25T16:10:31;14.80;47.70
10300;DHT22;5195;48.562;9.192;2023-04-25T16:12:56;14.70;47.60
10300;DHT22;5195;48.562;9.192;2023-04-25T16:15:22;14.80;48.10
10300;DHT22;5195;48.562;9.192;2023-04-25T16:17:48;14.60;48.60
10300;DHT22;5195;48.562;9.192;2023-04-25T16:20:13;14.80;47.20
10300;DHT22;5195;48.562;9.192;2023-04-25T16:22:39;15.10;46.60
10300;DHT22;5195;48.562;9.192;2023-04-25T16:25:05;14.90;47.80
10300;DHT22;5195;48.562;9.192;2023-04-25T16:27:31;14.80;47.80
10300;DHT22;5195;48.562;9.192;2023-04-25T16:29:56;14.90;47.10
10300;DHT22;5195;48.562;9.192;2023-04-25T16:32:22;14.90;47.70
10300;DHT22;5195;48.562;9.192;2023-04-25T16:34:47;14.60;48.20
10300;DHT22;5195;48.562;9.192;2023-04-25T16:37:13;14.50;48.90
10300;DHT22;5195;48.562;9.192;2023-04-25T16:39:38;14.30;49.40
10300;DHT22;5195;48.562;9.192;2023-04-25T16:42:05;14.40;48.50